Waldo, Arkansas
Current Conditions -  °F | °C
As of 5:53 PM on Friday 24 Oct 2014 (Local Time) from KELD Reporting Station
Clear Clear  
Wind Chill: 66°   Ceiling: Unl
Heat Index: 66°   Visibility: 10mi
Dew Point: 57°   Wind: 3mph
Humidity: 73%   Direction: 310°NW
Pressure: 30.11"   Gusts: NA
Location:  33.35°N, 93.3°W
Report Text: KELD 242253Z AUTO 31003KT 10SM CLR 19/14 A3011 RMK AO2 SLP194 T01890139
Loading
Personal Weather Stations






























Interactive Weather Map
Tropical Storm Tracking
New forecast layout! Learn more

10-Day Weather Forecast

Advertisements
Track Severe Weather on mobile